EET,Max TemperatureF,Mean TemperatureF,Min TemperatureF,Max Dew PointF,MeanDew PointF,Min DewpointF,Max Humidity, Mean Humidity, Min Humidity, Max Sea Level PressureIn, Mean Sea Level PressureIn, Min Sea Level PressureIn, Max VisibilityMiles, Mean VisibilityMiles, Min VisibilityMiles, Max Wind SpeedMPH, Mean Wind SpeedMPH, Max Gust SpeedMPH,PrecipitationIn, CloudCover, Events, WindDirDegrees
2012-1-1,55,52,48,48,44,36,94,80,54,29.95,29.79,29.68,6,6,4,16,11,,0.00,5,Rain,349
2012-1-2,60,52,44,37,35,32,71,55,34,30.18,30.08,29.98,,,,16,10,,0.00,,,329
2012-1-3,62,52,41,41,35,30,81,64,34,30.27,30.22,30.18,,,,12,7,,0.00,,,334
2012-1-4,62,48,35,41,36,30,87,69,36,30.27,30.18,30.12,6,6,6,9,5,,0.00,1,,347
2012-1-5,55,47,39,48,40,34,93,76,54,30.12,30.01,29.89,6,6,6,9,6,,0.00,5,Rain,7
2012-1-6,59,52,44,52,47,43,94,82,63,29.89,29.81,29.71,6,6,5,21,7,43,0.00,6,Rain-Thunderstorm,103
2012-1-7,60,54,48,52,48,41,93,71,58,29.74,29.70,29.68,6,6,1,32,22,46,0.00,6,Rain-Thunderstorm,157
2012-1-8,53,48,44,46,45,43,93,85,67,29.77,29.73,29.65,6,6,2,12,8,,0.00,6,Rain-Thunderstorm,12
2012-1-9,57,49,41,46,41,36,93,75,48,30.01,29.86,29.71,6,6,6,9,6,,0.00,4,Rain,324
2012-1-10,59,52,44,50,44,34,93,77,58,29.98,29.87,29.77,6,6,4,16,7,,0.00,6,Rain-Thunderstorm,289
2012-1-11,53,48,44,48,44,41,93,85,76,29.95,29.83,29.77,6,6,4,15,8,29,0.00,6,Rain-Thunderstorm,36
2012-1-12,55,48,42,43,40,34,93,76,54,30.04,30.00,29.95,6,6,6,10,5,,0.00,5,Rain,333
2012-1-13,57,48,39,39,33,27,81,61,33,30.04,30.01,29.98,6,6,6,14,9,,0.00,2,,314
2012-1-14,57,48,39,43,38,32,82,70,51,30.06,30.00,29.92,6,6,6,9,6,,0.00,4,,343
2012-1-15,59,50,42,48,44,39,93,81,63,29.89,29.81,29.74,6,6,5,9,5,,0.00,5,Rain,344
2012-1-16,53,47,41,45,24,10,87,44,19,29.98,29.83,29.74,6,6,6,24,11,,0.00,2,,336
2012-1-17,48,42,37,19,13,5,48,33,17,30.18,30.08,29.98,6,6,6,22,17,31,0.00,1,,323
2012-1-18,50,41,32,10,6,0,32,25,13,30.27,30.20,30.15,6,6,6,23,16,,0.00,1,,334
2012-1-19,46,40,35,7,4,0,28,24,14,30.33,30.28,30.24,,,,29,23,39,0.00,,,328
2012-1-20,53,42,32,27,15,7,65,37,19,30.27,30.22,30.18,,,,15,8,,0.00,,,357
2012-1-21,51,45,39,48,37,25,93,70,49,30.18,30.00,29.71,6,6,6,7,6,,0.00,5,Rain,339
2012-1-22,55,48,42,46,30,18,93,52,30,30.01,29.77,29.62,6,6,6,28,15,,0.00,4,Rain-Thunderstorm,327
2012-1-23,59,47,35,39,27,16,76,50,26,30.15,30.09,30.01,6,6,6,17,9,,0.00,1,,341
2012-1-24,51,45,39,48,38,30,94,74,54,30.15,30.07,29.86,6,6,4,14,6,,0.00,5,Rain,347
2012-1-25,55,52,46,52,49,45,94,92,82,29.86,29.72,29.65,6,6,2,13,6,,0.00,6,Fog-Rain,355
2012-1-26,59,52,44,52,47,39,100,79,58,29.71,29.66,29.62,6,6,2,21,8,32,0.00,6,Rain-Thunderstorm,199
2012-1-27,57,50,41,39,32,25,87,55,36,30.04,29.86,29.71,6,6,6,22,13,,0.00,2,,327
2012-1-28,59,50,41,34,26,21,65,44,29,30.12,30.08,30.04,,,,23,12,,0.00,,,336
2012-1-29,57,46,35,41,32,27,76,58,36,30.12,30.05,29.98,6,6,6,12,7,,0.00,5,,360
2012-1-30,50,47,44,39,34,27,76,62,49,29.98,29.89,29.77,6,6,6,21,9,,0.00,6,Rain,353
2012-1-31,50,46,41,28,19,5,57,38,23,29.83,29.76,29.71,6,6,6,25,19,,0.00,3,,344